createdAt,value
2022-12-08T00:01:27.025Z,97104.75
2022-12-08T00:03:54.867Z,97104.91
2022-12-08T00:06:53.359Z,97100.53
2022-12-08T00:09:37.851Z,97114.06
2022-12-08T00:12:11.429Z,97120.75
2022-12-08T00:14:43.899Z,97118.97
2022-12-08T00:17:13.034Z,97130.78
2022-12-08T00:19:41.192Z,97132.53
2022-12-08T00:22:09.874Z,97132.75
2022-12-08T00:24:42.053Z,97133.56
2022-12-08T00:27:10.889Z,97138.59
2022-12-08T00:29:38.161Z,97150.47
2022-12-08T00:32:06.154Z,97150.53
2022-12-08T00:34:33.793Z,97146.38
2022-12-08T00:37:01.007Z,97150.28
2022-12-08T00:39:28.279Z,97138.03
2022-12-08T00:42:13.405Z,97138.78
2022-12-08T00:44:41.883Z,97121.50
2022-12-08T00:47:09.533Z,97135.25
2022-12-08T00:49:36.562Z,97132.47
2022-12-08T00:52:04.052Z,97138.97
2022-12-08T00:54:31.447Z,97137.94
2022-12-08T00:56:58.520Z,97135.22
2022-12-08T00:59:25.559Z,97149.72
2022-12-08T01:01:52.541Z,97148.69
2022-12-08T01:04:20.585Z,97144.16
2022-12-08T01:06:48.000Z,97143.97
2022-12-08T01:09:16.788Z,97143.09
2022-12-08T01:11:44.871Z,97139.59
2022-12-08T01:14:12.557Z,97143.09
2022-12-08T01:16:41.752Z,97137.25
2022-12-08T01:19:12.254Z,97144.88
2022-12-08T01:21:40.566Z,97141.13
2022-12-08T01:24:08.117Z,97156.47
2022-12-08T01:26:35.021Z,97145.97
2022-12-08T01:29:02.011Z,97150.03
2022-12-08T01:31:29.151Z,97146.44
2022-12-08T01:33:56.589Z,97153.22
2022-12-08T01:36:29.232Z,97148.53
2022-12-08T01:38:58.565Z,97146.31
2022-12-08T01:41:28.389Z,97154.88
2022-12-08T01:43:59.674Z,97157.38
2022-12-08T01:46:28.272Z,97163.63
2022-12-08T01:49:08.718Z,97154.88
2022-12-08T01:51:43.373Z,97150.41
2022-12-08T01:54:12.698Z,97142.22
2022-12-08T01:56:48.214Z,97140.91
2022-12-08T01:59:15.724Z,97132.56
2022-12-08T02:01:43.011Z,97126.41
2022-12-08T02:06:55.770Z,97125.88
2022-12-08T02:09:22.814Z,97122.03
2022-12-08T02:11:51.498Z,97121.03
2022-12-08T02:14:18.516Z,97120.38
2022-12-08T02:16:49.530Z,97119.56
2022-12-08T02:19:55.385Z,97111.75
2022-12-08T02:22:43.748Z,97109.22
2022-12-08T02:25:22.680Z,97110.63
2022-12-08T02:28:02.096Z,97113.25
2022-12-08T02:30:55.564Z,97119.25
2022-12-08T02:34:09.392Z,97119.56
2022-12-08T02:36:48.988Z,97121.22
2022-12-08T02:39:27.740Z,97121.03
2022-12-08T02:42:28.199Z,97131.44
2022-12-08T02:45:05.717Z,97124.16
2022-12-08T02:47:34.553Z,97124.34
2022-12-08T02:50:02.354Z,97113.22
2022-12-08T02:52:32.011Z,97114.78
2022-12-08T02:55:06.946Z,97113.41
2022-12-08T02:57:52.020Z,97121.84
2022-12-08T03:00:21.974Z,97121.66
2022-12-08T03:02:58.053Z,97120.63
2022-12-08T03:06:07.100Z,97118.75
2022-12-08T03:09:10.801Z,97117.00
2022-12-08T03:12:01.236Z,97122.13
2022-12-08T03:14:29.787Z,97117.63
2022-12-08T03:16:58.448Z,97114.00
2022-12-08T03:19:32.693Z,97120.03
2022-12-08T03:22:03.507Z,97120.41
2022-12-08T03:24:37.287Z,97120.41
2022-12-08T03:27:10.056Z,97121.63
2022-12-08T03:29:37.347Z,97115.22
2022-12-08T03:32:23.263Z,97122.31
2022-12-08T03:34:52.273Z,97124.34
2022-12-08T03:37:19.337Z,97132.25
2022-12-08T03:39:48.728Z,97125.94
2022-12-08T03:42:15.773Z,97130.63
2022-12-08T03:44:42.722Z,97132.09
2022-12-08T03:47:09.879Z,97143.56
2022-12-08T03:49:36.950Z,97136.22
2022-12-08T03:52:04.128Z,97131.19
2022-12-08T03:54:31.052Z,97128.59
2022-12-08T03:56:58.039Z,97128.59
2022-12-08T03:59:25.250Z,97130.25
2022-12-08T04:01:52.271Z,97120.56
2022-12-08T04:04:19.381Z,97120.41
2022-12-08T04:06:46.561Z,97129.81
2022-12-08T04:09:14.043Z,97139.56
2022-12-08T04:11:41.006Z,97143.31
2022-12-08T04:14:07.982Z,97152.31
2022-12-08T04:16:35.261Z,97151.97
2022-12-08T04:19:02.341Z,97158.84
2022-12-08T04:21:29.571Z,97155.22
2022-12-08T04:24:01.073Z,97157.38
2022-12-08T04:26:28.469Z,97159.44
2022-12-08T04:28:55.780Z,97161.19
2022-12-08T04:31:22.877Z,97175.69
2022-12-08T04:33:49.884Z,97176.97
2022-12-08T04:36:16.887Z,97178.19
2022-12-08T04:38:44.010Z,97181.59
2022-12-08T04:41:10.961Z,97174.03
2022-12-08T04:43:37.957Z,97176.25
2022-12-08T04:46:09.373Z,97177.94
2022-12-08T04:48:39.860Z,97178.47
2022-12-08T04:51:07.300Z,97178.13
2022-12-08T04:53:34.584Z,97177.78
2022-12-08T04:56:01.749Z,97180.53
2022-12-08T04:58:28.791Z,97181.66
2022-12-08T05:00:55.990Z,97173.69
2022-12-08T05:03:28.536Z,97187.41
2022-12-08T05:05:56.144Z,97182.03
2022-12-08T05:08:23.151Z,97190.84
2022-12-08T05:10:50.342Z,97191.03
2022-12-08T05:13:17.494Z,97185.56
2022-12-08T05:15:44.939Z,97182.03
2022-12-08T05:18:11.856Z,97183.16
2022-12-08T05:20:38.908Z,97181.84
2022-12-08T05:23:05.887Z,97192.72
2022-12-08T05:25:33.127Z,97191.88
2022-12-08T05:28:24.732Z,97188.34
2022-12-08T05:30:47.088Z,97190.28
2022-12-08T05:33:14.360Z,97190.94
2022-12-08T05:35:41.582Z,97194.38
2022-12-08T05:38:08.987Z,97190.38
2022-12-08T05:40:38.701Z,97191.13
2022-12-08T05:43:05.943Z,97185.47
2022-12-08T05:45:35.080Z,97189.72
2022-12-08T05:48:02.387Z,97193.38
2022-12-08T05:50:29.314Z,97185.56
2022-12-08T05:52:56.306Z,97186.88
2022-12-08T05:55:23.376Z,97194.84
2022-12-08T05:57:50.685Z,97183.78
2022-12-08T06:00:18.395Z,97199.47
2022-12-08T06:02:45.440Z,97190.66
2022-12-08T06:05:12.759Z,97177.47
2022-12-08T06:07:39.848Z,97192.59
2022-12-08T06:10:07.687Z,97187.88
2022-12-08T06:12:34.729Z,97180.72
2022-12-08T06:15:01.825Z,97180.16
2022-12-08T06:17:28.847Z,97178.88
2022-12-08T06:19:55.955Z,97186.47
2022-12-08T06:22:22.895Z,97193.38
2022-12-08T06:24:49.900Z,97191.66
2022-12-08T06:27:17.119Z,97195.31
2022-12-08T06:29:44.064Z,97199.00
2022-12-08T06:32:12.197Z,97209.97
2022-12-08T06:34:39.213Z,97208.97
2022-12-08T06:37:06.356Z,97207.00
2022-12-08T06:39:33.550Z,97216.38
2022-12-08T06:42:19.198Z,97211.91
2022-12-08T06:44:46.398Z,97211.75
2022-12-08T06:47:13.317Z,97214.34
2022-12-08T06:49:40.827Z,97200.03
2022-12-08T06:52:07.857Z,97190.28
2022-12-08T06:54:35.071Z,97203.38
2022-12-08T06:57:02.052Z,97208.75
2022-12-08T06:59:28.962Z,97204.59
2022-12-08T07:01:56.038Z,97202.63
2022-12-08T07:04:23.337Z,97208.13
2022-12-08T07:06:51.035Z,97205.91
2022-12-08T07:09:17.984Z,97203.47
2022-12-08T07:11:45.480Z,97203.56
2022-12-08T07:14:13.275Z,97218.97
2022-12-08T07:16:40.290Z,97221.56
2022-12-08T07:19:07.390Z,97220.66
2022-12-08T07:21:34.387Z,97228.53
2022-12-08T07:24:01.837Z,97230.50
2022-12-08T07:26:29.000Z,97224.53
2022-12-08T07:28:55.951Z,97222.56
2022-12-08T07:31:25.571Z,97213.28
2022-12-08T07:33:53.298Z,97228.81
2022-12-08T07:36:20.386Z,97229.66
2022-12-08T07:38:47.475Z,97226.22
2022-12-08T07:41:18.957Z,97213.75
2022-12-08T07:43:46.248Z,97210.22
2022-12-08T07:46:16.626Z,97218.88
2022-12-08T07:48:43.871Z,97215.25
2022-12-08T07:51:13.118Z,97210.59
2022-12-08T07:53:42.791Z,97207.53
2022-12-08T07:56:11.866Z,97204.06
2022-12-08T07:58:39.148Z,97215.94
2022-12-08T08:01:06.581Z,97207.91
2022-12-08T08:03:34.115Z,97217.75
2022-12-08T08:06:05.168Z,97211.13
2022-12-08T08:08:32.564Z,97214.75
2022-12-08T08:10:59.488Z,97212.06
2022-12-08T08:13:26.714Z,97207.91
2022-12-08T08:15:53.787Z,97209.81
2022-12-08T08:18:20.834Z,97206.13
2022-12-08T08:20:47.768Z,97207.19
2022-12-08T08:23:14.796Z,97192.75
2022-12-08T08:25:41.641Z,97187.94
2022-12-08T08:28:08.762Z,97182.34
2022-12-08T08:30:35.668Z,97185.69
2022-12-08T08:33:02.850Z,97190.66
2022-12-08T08:35:29.840Z,97190.91
2022-12-08T08:37:57.024Z,97189.88
2022-12-08T08:40:24.024Z,97186.41
2022-12-08T08:42:51.020Z,97177.44
2022-12-08T08:45:17.968Z,97180.88
2022-12-08T08:47:45.076Z,97173.56
2022-12-08T08:50:12.267Z,97165.94
2022-12-08T08:52:39.415Z,97161.97
2022-12-08T08:55:06.853Z,97163.91
2022-12-08T08:57:34.262Z,97160.16
2022-12-08T09:00:01.275Z,97150.44
2022-12-08T09:02:28.444Z,97147.50
2022-12-08T09:04:55.629Z,97147.19
2022-12-08T09:07:22.652Z,97143.69
2022-12-08T09:09:49.779Z,97144.69
2022-12-08T09:12:16.786Z,97143.09
2022-12-08T09:14:43.689Z,97148.16
2022-12-08T09:17:10.706Z,97134.66
2022-12-08T09:19:37.837Z,97126.63
2022-12-08T09:22:05.825Z,97125.69
2022-12-08T09:24:32.735Z,97118.97
2022-12-08T09:26:59.750Z,97118.03
2022-12-08T09:29:31.051Z,97110.78
2022-12-08T09:32:01.098Z,97088.69
2022-12-08T09:34:28.018Z,97093.09
2022-12-08T09:36:55.195Z,97079.06
2022-12-08T09:39:22.281Z,97079.38
2022-12-08T09:41:54.159Z,97082.59
2022-12-08T09:44:23.670Z,97078.03
2022-12-08T09:46:53.056Z,97069.31
2022-12-08T09:49:25.351Z,97073.56
2022-12-08T09:51:52.922Z,97068.75
2022-12-08T09:54:30.624Z,97072.97
2022-12-08T09:57:01.737Z,97070.03
2022-12-08T09:59:34.982Z,97071.53
2022-12-08T10:02:03.021Z,97064.41
2022-12-08T10:04:35.675Z,97057.28
2022-12-08T10:07:21.269Z,97055.59
2022-12-08T10:10:08.354Z,97053.28
2022-12-08T10:12:54.431Z,97051.50
2022-12-08T10:15:38.373Z,97050.91
2022-12-08T10:18:14.304Z,97053.34
2022-12-08T10:20:43.346Z,97049.34
2022-12-08T10:23:13.400Z,97055.66
2022-12-08T10:25:48.665Z,97051.19
2022-12-08T10:28:15.825Z,97050.78
2022-12-08T10:30:42.988Z,97049.91
2022-12-08T10:33:19.018Z,97048.13
2022-12-08T10:35:48.837Z,97042.34
2022-12-08T10:38:33.634Z,97043.22
2022-12-08T10:41:09.749Z,97039.13
2022-12-08T10:44:00.189Z,97035.78
2022-12-08T10:46:29.242Z,97032.72
2022-12-08T10:49:25.347Z,97047.91
2022-12-08T10:51:52.378Z,97039.13
2022-12-08T10:54:34.255Z,97033.59
2022-12-08T10:57:01.432Z,97042.69
2022-12-08T10:59:29.505Z,97046.84
2022-12-08T11:01:58.328Z,97037.69
2022-12-08T11:04:37.402Z,97049.31
2022-12-08T11:07:11.700Z,97048.75
2022-12-08T11:09:49.535Z,97040.94
2022-12-08T11:12:17.779Z,97038.81
2022-12-08T11:14:44.679Z,97031.34
2022-12-08T11:17:23.522Z,97037.78
2022-12-08T11:20:04.311Z,97037.91
2022-12-08T11:22:34.125Z,97054.94
2022-12-08T11:25:11.803Z,97046.28
2022-12-08T11:27:42.119Z,97047.72
2022-12-08T11:30:46.715Z,97039.66
2022-12-08T11:33:21.172Z,97039.44
2022-12-08T11:35:53.287Z,97038.13
2022-12-08T11:38:24.066Z,97043.50
2022-12-08T11:44:09.171Z,97040.63
2022-12-08T11:46:59.978Z,97038.97
2022-12-08T11:49:38.469Z,97037.44
2022-12-08T11:52:29.854Z,97048.25
2022-12-08T11:55:16.792Z,97033.47
2022-12-08T11:57:45.293Z,97042.28
2022-12-08T12:00:16.790Z,97034.22
2022-12-08T12:02:55.266Z,97034.59
2022-12-08T12:09:02.650Z,97028.66
2022-12-08T12:12:06.210Z,97030.91
2022-12-08T12:15:02.314Z,97034.84
2022-12-08T12:17:57.544Z,97042.53
2022-12-08T12:20:28.069Z,97045.28
2022-12-08T12:23:06.761Z,97051.13
2022-12-08T12:25:37.186Z,97068.47
2022-12-08T12:28:08.302Z,97065.13
2022-12-08T12:31:03.468Z,97063.09
2022-12-08T12:33:34.976Z,97068.47
2022-12-08T12:36:05.786Z,97071.28
2022-12-08T12:38:56.336Z,97055.50
2022-12-08T12:41:47.229Z,97049.31
2022-12-08T12:44:14.419Z,97059.91
2022-12-08T12:46:54.363Z,97057.75
2022-12-08T12:49:39.467Z,97063.13
2022-12-08T12:52:19.073Z,97059.06
2022-12-08T12:55:12.037Z,97054.19
2022-12-08T12:57:50.467Z,97057.66
2022-12-08T13:00:24.276Z,97056.59
2022-12-08T13:02:53.731Z,97060.41
2022-12-08T13:05:35.709Z,97061.81
2022-12-08T13:08:08.721Z,97058.25
2022-12-08T13:10:40.930Z,97060.63
2022-12-08T13:13:10.683Z,97053.50
2022-12-08T13:15:40.111Z,97050.88
2022-12-08T13:18:16.839Z,97048.75
2022-12-08T13:20:48.717Z,97048.97
2022-12-08T13:23:37.031Z,97040.78
2022-12-08T13:26:25.449Z,97038.53
2022-12-08T13:29:01.710Z,97036.88
2022-12-08T13:31:50.957Z,97045.06
2022-12-08T13:34:45.014Z,97040.91
2022-12-08T13:37:11.887Z,97039.94
2022-12-08T13:39:41.989Z,97044.34
2022-12-08T13:42:30.004Z,97057.44
2022-12-08T13:45:24.243Z,97056.69
2022-12-08T13:48:59.002Z,97057.78
2022-12-08T13:55:20.032Z,97044.47
2022-12-08T13:57:33.186Z,97041.59
2022-12-08T14:00:14.962Z,97039.72
2022-12-08T14:02:50.426Z,97038.75
2022-12-08T14:05:29.817Z,97028.44
2022-12-08T14:11:37.373Z,97040.06
2022-12-08T14:14:27.336Z,97037.34
2022-12-08T14:17:05.638Z,97032.22
2022-12-08T14:19:35.195Z,97028.28
2022-12-08T14:22:11.934Z,97031.13
2022-12-08T14:24:40.335Z,97015.94
2022-12-08T14:27:10.919Z,97025.31
2022-12-08T14:29:48.962Z,97018.19
2022-12-08T14:32:23.796Z,97010.91
2022-12-08T14:35:02.621Z,97017.75
2022-12-08T14:37:33.328Z,97022.47
2022-12-08T14:40:08.474Z,97015.94
2022-12-08T14:42:48.026Z,97032.41
2022-12-08T14:45:17.921Z,97022.41
2022-12-08T14:47:48.892Z,97028.00
2022-12-08T14:50:42.219Z,97012.28
2022-12-08T14:53:16.419Z,97017.59
2022-12-08T14:55:46.216Z,97017.34
2022-12-08T14:58:20.237Z,97020.91
2022-12-08T15:00:55.267Z,97022.78
2022-12-08T15:03:24.157Z,97017.41
2022-12-08T15:05:53.545Z,97015.25
2022-12-08T15:08:20.810Z,97018.91
2022-12-08T15:11:19.323Z,97017.44
2022-12-08T15:13:47.882Z,97013.28
2022-12-08T15:16:30.538Z,97016.22
2022-12-08T15:19:18.262Z,97012.84
2022-12-08T15:21:47.055Z,97029.41
2022-12-08T15:24:15.365Z,97028.19
2022-12-08T15:26:47.769Z,97030.50
2022-12-08T15:29:27.164Z,97035.22
2022-12-08T15:32:00.227Z,97035.44
2022-12-08T15:34:27.701Z,97044.19
2022-12-08T15:36:55.607Z,97037.38
2022-12-08T15:39:33.258Z,97035.31
2022-12-08T15:42:01.474Z,97036.81
2022-12-08T15:44:29.533Z,97034.59
2022-12-08T15:46:56.463Z,97030.47
2022-12-08T15:49:24.961Z,97026.69
2022-12-08T15:52:00.595Z,97025.25
2022-12-08T15:54:35.120Z,97022.22
2022-12-08T15:59:49.240Z,97020.16
2022-12-08T16:02:20.977Z,97021.81
2022-12-08T16:07:38.598Z,97019.66
2022-12-08T16:10:07.996Z,97020.06
2022-12-08T16:15:53.506Z,97025.47
2022-12-08T16:18:28.589Z,97030.16
2022-12-08T16:23:44.707Z,97022.69
2022-12-08T16:27:06.861Z,97022.75
2022-12-08T16:29:22.936Z,97027.88
2022-12-08T16:31:50.653Z,97022.75
2022-12-08T16:34:18.071Z,97021.41
2022-12-08T16:36:45.079Z,97021.53
2022-12-08T16:39:14.245Z,97023.06
2022-12-08T16:41:59.746Z,97025.25
2022-12-08T16:44:26.714Z,97024.66
2022-12-08T16:46:53.626Z,97022.06
2022-12-08T16:49:20.805Z,97027.44
2022-12-08T16:51:47.825Z,97021.31
2022-12-08T16:54:15.181Z,97015.16
2022-12-08T16:56:43.125Z,97018.09
2022-12-08T16:59:10.369Z,97019.75
2022-12-08T17:01:37.829Z,97020.16
2022-12-08T17:04:30.529Z,97026.00
2022-12-08T17:06:53.188Z,97016.41
2022-12-08T17:09:20.226Z,97011.41
2022-12-08T17:11:47.485Z,97013.09
2022-12-08T17:14:15.302Z,97011.41
2022-12-08T17:16:43.136Z,96994.09
2022-12-08T17:19:10.730Z,97004.03
2022-12-08T17:21:37.707Z,96985.56
2022-12-08T17:24:05.371Z,96977.44
2022-12-08T17:26:32.666Z,96987.66
2022-12-08T17:29:03.709Z,96981.81
2022-12-08T17:31:32.696Z,96989.75
2022-12-08T17:34:08.403Z,96999.75
2022-12-08T17:36:35.634Z,96994.75
2022-12-08T17:39:04.061Z,96998.28
2022-12-08T17:41:31.183Z,96997.13
2022-12-08T17:43:58.267Z,96994.09
2022-12-08T17:46:25.792Z,96993.38
2022-12-08T17:48:53.644Z,97006.81
2022-12-08T17:51:20.808Z,97009.09
2022-12-08T17:53:47.938Z,97017.72
2022-12-08T17:56:18.696Z,97022.19
2022-12-08T17:58:49.879Z,97021.97
2022-12-08T18:01:21.813Z,97020.00
2022-12-08T18:03:49.219Z,97011.81
2022-12-08T18:06:17.948Z,97012.25
2022-12-08T18:08:45.797Z,97017.41
2022-12-08T18:11:18.863Z,97024.28
2022-12-08T18:13:47.800Z,97023.28
2022-12-08T18:16:15.585Z,97026.59
2022-12-08T18:18:42.873Z,97021.78
2022-12-08T18:21:10.156Z,97019.94
2022-12-08T18:23:44.200Z,97028.25
2022-12-08T18:26:13.760Z,97020.88
2022-12-08T18:28:42.856Z,97021.59
2022-12-08T18:31:12.223Z,97002.84
2022-12-08T18:33:43.840Z,97011.81
2022-12-08T18:36:13.738Z,97008.19
2022-12-08T18:38:40.816Z,97000.78
2022-12-08T18:41:14.204Z,96993.31
2022-12-08T18:43:41.331Z,96998.28
2022-12-08T18:46:11.062Z,96999.97
2022-12-08T18:48:41.626Z,96999.53
2022-12-08T18:51:13.002Z,96998.69
2022-12-08T18:53:40.426Z,96997.88
2022-12-08T18:56:08.946Z,96999.72
2022-12-08T18:58:36.373Z,96997.66
2022-12-08T19:01:03.875Z,97011.00
2022-12-08T19:03:30.848Z,97005.06
2022-12-08T19:06:08.041Z,97004.72
2022-12-08T19:08:35.349Z,97006.00
2022-12-08T19:11:02.351Z,96999.97
2022-12-08T19:13:29.541Z,97013.69
2022-12-08T19:15:56.880Z,97004.09
2022-12-08T19:18:23.985Z,97019.53
2022-12-08T19:20:56.805Z,97012.25
2022-12-08T19:23:23.950Z,97009.84
2022-12-08T19:25:51.333Z,96996.19
2022-12-08T19:28:19.186Z,97008.25
2022-12-08T19:30:46.655Z,97006.59
2022-12-08T19:33:14.010Z,97010.88
2022-12-08T19:35:41.193Z,97008.06
2022-12-08T19:38:08.490Z,97006.41
2022-12-08T19:40:53.664Z,97010.13
2022-12-08T19:43:40.770Z,97006.59
2022-12-08T19:46:09.341Z,97009.09
2022-12-08T19:48:36.808Z,97010.84
2022-12-08T19:51:05.297Z,97016.34
2022-12-08T19:53:32.500Z,97013.03
2022-12-08T19:55:59.748Z,97019.56
2022-12-08T19:58:27.000Z,97007.81
2022-12-08T20:00:54.125Z,97015.31
2022-12-08T20:03:22.493Z,97011.75
2022-12-08T20:05:51.096Z,97025.72
2022-12-08T20:08:18.426Z,97019.94
2022-12-08T20:10:46.060Z,97013.66
2022-12-08T20:13:31.761Z,97031.25
2022-12-08T20:15:59.625Z,97038.97
2022-12-08T20:18:28.848Z,97037.28
2022-12-08T20:20:57.190Z,97031.66
2022-12-08T20:23:24.219Z,97038.31
2022-12-08T20:25:51.870Z,97037.88
2022-12-08T20:28:19.419Z,97042.88
2022-12-08T20:30:49.270Z,97047.00
2022-12-08T20:33:18.104Z,97057.13
2022-12-08T20:35:46.733Z,97055.09
2022-12-08T20:38:14.091Z,97068.59
2022-12-08T20:40:46.690Z,97067.34
2022-12-08T20:43:13.705Z,97061.50
2022-12-08T20:45:40.964Z,97059.38
2022-12-08T20:48:08.272Z,97069.31
2022-12-08T20:50:35.579Z,97072.88
2022-12-08T20:53:02.808Z,97064.50
2022-12-08T20:55:30.345Z,97067.94
2022-12-08T20:57:57.642Z,97081.19
2022-12-08T21:00:26.360Z,97093.28
2022-12-08T21:02:56.813Z,97092.06
2022-12-08T21:05:24.800Z,97101.09
2022-12-08T21:07:52.253Z,97102.00
2022-12-08T21:10:19.406Z,97110.34
2022-12-08T21:12:46.634Z,97115.38
2022-12-08T21:15:14.060Z,97119.28
2022-12-08T21:17:41.625Z,97124.06
2022-12-08T21:20:09.545Z,97124.19
2022-12-08T21:22:36.649Z,97119.09
2022-12-08T21:25:04.157Z,97127.16
2022-12-08T21:27:31.406Z,97120.94
2022-12-08T21:29:58.534Z,97121.06
2022-12-08T21:32:30.105Z,97125.38
2022-12-08T21:34:57.974Z,97128.44
2022-12-08T21:37:25.009Z,97124.47
2022-12-08T21:39:52.307Z,97117.88
2022-12-08T21:42:38.031Z,97129.09
2022-12-08T21:45:06.012Z,97124.53
2022-12-08T21:47:33.077Z,97124.06
2022-12-08T21:50:00.535Z,97125.78
2022-12-08T21:52:27.858Z,97131.16
2022-12-08T21:54:55.180Z,97117.81
2022-12-08T21:57:22.514Z,97128.38
2022-12-08T21:59:49.999Z,97121.41
2022-12-08T22:02:22.145Z,97117.53
2022-12-08T22:04:50.295Z,97108.97
2022-12-08T22:07:18.033Z,97123.19
2022-12-08T22:09:45.810Z,97130.81
2022-12-08T22:12:13.582Z,97126.50
2022-12-08T22:14:40.816Z,97122.25
2022-12-08T22:17:08.089Z,97127.56
2022-12-08T22:19:35.845Z,97129.84
2022-12-08T22:22:03.051Z,97122.78
2022-12-08T22:24:31.319Z,97111.38
2022-12-08T22:26:58.886Z,97093.81
2022-12-08T22:29:25.828Z,97093.09
2022-12-08T22:31:53.071Z,97086.41
2022-12-08T22:34:20.261Z,97076.00
2022-12-08T22:36:49.270Z,97065.41
2022-12-08T22:39:16.323Z,97058.94
2022-12-08T22:41:43.498Z,97060.41
2022-12-08T22:44:22.447Z,97046.88
2022-12-08T22:46:49.564Z,97061.19
2022-12-08T22:49:16.713Z,97062.84
2022-12-08T22:51:43.848Z,97048.94
2022-12-08T22:54:11.793Z,97039.44
2022-12-08T22:56:38.557Z,97044.09
2022-12-08T22:59:05.443Z,97040.97
2022-12-08T23:01:34.128Z,97040.75
2022-12-08T23:04:02.082Z,97040.03
2022-12-08T23:06:30.049Z,97040.75
2022-12-08T23:08:57.922Z,97030.38
2022-12-08T23:11:27.777Z,97015.53
2022-12-08T23:13:56.447Z,97029.66
2022-12-08T23:16:23.910Z,97029.63
2022-12-08T23:18:51.202Z,97022.22
2022-12-08T23:21:20.095Z,97032.06
2022-12-08T23:23:47.712Z,97030.75
2022-12-08T23:26:26.928Z,97023.69
2022-12-08T23:28:55.036Z,97042.63
2022-12-08T23:31:22.862Z,97031.50
2022-12-08T23:33:50.343Z,97041.53
2022-12-08T23:36:18.865Z,97034.28
2022-12-08T23:38:46.550Z,97033.63
2022-12-08T23:41:16.096Z,97038.09
2022-12-08T23:43:48.954Z,97044.28
2022-12-08T23:46:17.953Z,97027.38
2022-12-08T23:48:45.114Z,97042.63
2022-12-08T23:51:13.289Z,97043.47
2022-12-08T23:53:41.122Z,97045.59
2022-12-08T23:56:11.656Z,97048.56
2022-12-08T23:58:38.996Z,97050.44
